sensor_id;sensor_type;location;lat;lon;timestamp;P1;durP1;ratioP1;P2;durP2;ratioP2
66721;SDS011;53633;49.932;10.884;2023-04-15T00:00:54;13.45;;;6.70;;
66721;SDS011;53633;49.932;10.884;2023-04-15T00:03:21;15.88;;;7.18;;
66721;SDS011;53633;49.932;10.884;2023-04-15T00:05:50;13.20;;;6.50;;
66721;SDS011;53633;49.932;10.884;2023-04-15T00:08:16;13.13;;;6.45;;
66721;SDS011;53633;49.932;10.884;2023-04-15T00:10:43;12.18;;;6.30;;
66721;SDS011;53633;49.932;10.884;2023-04-15T00:13:10;13.95;;;7.00;;
66721;SDS011;53633;49.932;10.884;2023-04-15T00:15:36;12.82;;;6.65;;
66721;SDS011;53633;49.932;10.884;2023-04-15T00:18:03;11.30;;;5.50;;
66721;SDS011;53633;49.932;10.884;2023-04-15T00:20:29;10.88;;;5.38;;
66721;SDS011;53633;49.932;10.884;2023-04-15T00:22:57;12.32;;;6.30;;
66721;SDS011;53633;49.932;10.884;2023-04-15T00:25:24;11.35;;;5.70;;
66721;SDS011;53633;49.932;10.884;2023-04-15T00:27:51;12.27;;;5.88;;
66721;SDS011;53633;49.932;10.884;2023-04-15T00:30:18;11.50;;;5.37;;
66721;SDS011;53633;49.932;10.884;2023-04-15T00:32:44;11.93;;;5.90;;
66721;SDS011;53633;49.932;10.884;2023-04-15T00:35:11;11.48;;;5.50;;
66721;SDS011;53633;49.932;10.884;2023-04-15T00:37:38;13.48;;;5.32;;
66721;SDS011;53633;49.932;10.884;2023-04-15T00:40:07;12.75;;;6.10;;
66721;SDS011;53633;49.932;10.884;2023-04-15T00:42:38;13.67;;;5.93;;
66721;SDS011;53633;49.932;10.884;2023-04-15T00:45:05;12.13;;;6.03;;
66721;SDS011;53633;49.932;10.884;2023-04-15T00:47:32;10.60;;;5.38;;
66721;SDS011;53633;49.932;10.884;2023-04-15T00:50:00;11.88;;;5.00;;
66721;SDS011;53633;49.932;10.884;2023-04-15T00:52:27;10.65;;;5.03;;
66721;SDS011;53633;49.932;10.884;2023-04-15T00:54:54;11.97;;;5.30;;
66721;SDS011;53633;49.932;10.884;2023-04-15T00:57:22;11.55;;;5.97;;
66721;SDS011;53633;49.932;10.884;2023-04-15T00:59:49;11.63;;;5.80;;
66721;SDS011;53633;49.932;10.884;2023-04-15T01:02:17;10.52;;;4.57;;
66721;SDS011;53633;49.932;10.884;2023-04-15T01:04:44;11.07;;;5.55;;
66721;SDS011;53633;49.932;10.884;2023-04-15T01:07:11;10.37;;;4.80;;
66721;SDS011;53633;49.932;10.884;2023-04-15T01:09:37;11.07;;;5.40;;
66721;SDS011;53633;49.932;10.884;2023-04-15T01:12:04;14.45;;;5.53;;
66721;SDS011;53633;49.932;10.884;2023-04-15T01:14:33;11.68;;;5.03;;
66721;SDS011;53633;49.932;10.884;2023-04-15T01:17:00;10.30;;;4.95;;
66721;SDS011;53633;49.932;10.884;2023-04-15T01:19:27;10.97;;;5.33;;
66721;SDS011;53633;49.932;10.884;2023-04-15T01:21:53;10.80;;;4.93;;
66721;SDS011;53633;49.932;10.884;2023-04-15T01:24:20;12.40;;;5.10;;
66721;SDS011;53633;49.932;10.884;2023-04-15T01:26:50;10.57;;;4.85;;
66721;SDS011;53633;49.932;10.884;2023-04-15T01:29:17;9.73;;;4.53;;
66721;SDS011;53633;49.932;10.884;2023-04-15T01:31:48;9.00;;;4.40;;
66721;SDS011;53633;49.932;10.884;2023-04-15T01:34:15;10.68;;;4.50;;
66721;SDS011;53633;49.932;10.884;2023-04-15T01:36:42;10.70;;;4.80;;
66721;SDS011;53633;49.932;10.884;2023-04-15T01:39:08;12.10;;;4.43;;
66721;SDS011;53633;49.932;10.884;2023-04-15T01:41:35;8.68;;;3.92;;
66721;SDS011;53633;49.932;10.884;2023-04-15T01:44:03;10.83;;;4.10;;
66721;SDS011;53633;49.932;10.884;2023-04-15T01:46:30;8.73;;;4.00;;
66721;SDS011;53633;49.932;10.884;2023-04-15T01:48:57;8.13;;;3.90;;
66721;SDS011;53633;49.932;10.884;2023-04-15T01:51:24;9.10;;;4.03;;
66721;SDS011;53633;49.932;10.884;2023-04-15T01:53:50;8.68;;;4.50;;
66721;SDS011;53633;49.932;10.884;2023-04-15T01:56:17;10.67;;;5.00;;
66721;SDS011;53633;49.932;10.884;2023-04-15T01:58:44;10.88;;;4.97;;
66721;SDS011;53633;49.932;10.884;2023-04-15T02:01:12;12.32;;;5.32;;
66721;SDS011;53633;49.932;10.884;2023-04-15T02:03:39;10.75;;;4.30;;
66721;SDS011;53633;49.932;10.884;2023-04-15T02:06:05;9.98;;;4.50;;
66721;SDS011;53633;49.932;10.884;2023-04-15T02:08:32;10.87;;;4.33;;
66721;SDS011;53633;49.932;10.884;2023-04-15T02:10:59;11.82;;;4.85;;
66721;SDS011;53633;49.932;10.884;2023-04-15T02:13:25;11.20;;;5.30;;
66721;SDS011;53633;49.932;10.884;2023-04-15T02:15:53;9.95;;;4.80;;
66721;SDS011;53633;49.932;10.884;2023-04-15T02:18:21;11.38;;;5.18;;
66721;SDS011;53633;49.932;10.884;2023-04-15T02:20:49;10.17;;;4.40;;
66721;SDS011;53633;49.932;10.884;2023-04-15T02:23:17;12.18;;;5.18;;
66721;SDS011;53633;49.932;10.884;2023-04-15T02:25:43;11.32;;;5.43;;
66721;SDS011;53633;49.932;10.884;2023-04-15T02:28:19;10.30;;;5.35;;
66721;SDS011;53633;49.932;10.884;2023-04-15T02:30:46;10.10;;;4.65;;
66721;SDS011;53633;49.932;10.884;2023-04-15T02:33:13;11.00;;;5.03;;
66721;SDS011;53633;49.932;10.884;2023-04-15T02:35:41;10.23;;;5.35;;
66721;SDS011;53633;49.932;10.884;2023-04-15T02:38:08;11.43;;;5.30;;
66721;SDS011;53633;49.932;10.884;2023-04-15T02:40:34;11.88;;;5.57;;
66721;SDS011;53633;49.932;10.884;2023-04-15T02:43:01;13.55;;;5.63;;
66721;SDS011;53633;49.932;10.884;2023-04-15T02:45:28;11.77;;;5.63;;
66721;SDS011;53633;49.932;10.884;2023-04-15T02:47:54;11.35;;;5.30;;
66721;SDS011;53633;49.932;10.884;2023-04-15T02:50:21;11.18;;;5.72;;
66721;SDS011;53633;49.932;10.884;2023-04-15T02:52:49;10.38;;;5.13;;
66721;SDS011;53633;49.932;10.884;2023-04-15T02:55:16;11.80;;;5.45;;
66721;SDS011;53633;49.932;10.884;2023-04-15T02:57:43;10.60;;;5.10;;
66721;SDS011;53633;49.932;10.884;2023-04-15T03:00:10;11.63;;;4.90;;
66721;SDS011;53633;49.932;10.884;2023-04-15T03:02:37;12.10;;;5.45;;
66721;SDS011;53633;49.932;10.884;2023-04-15T03:05:05;14.00;;;5.25;;
66721;SDS011;53633;49.932;10.884;2023-04-15T03:07:32;10.32;;;5.10;;
66721;SDS011;53633;49.932;10.884;2023-04-15T03:10:00;11.17;;;5.23;;
66721;SDS011;53633;49.932;10.884;2023-04-15T03:12:27;9.98;;;4.75;;
66721;SDS011;53633;49.932;10.884;2023-04-15T03:14:53;9.73;;;4.43;;
66721;SDS011;53633;49.932;10.884;2023-04-15T03:17:20;11.27;;;5.50;;
66721;SDS011;53633;49.932;10.884;2023-04-15T03:19:47;11.40;;;5.45;;
66721;SDS011;53633;49.932;10.884;2023-04-15T03:22:13;11.87;;;4.90;;
66721;SDS011;53633;49.932;10.884;2023-04-15T03:24:40;11.40;;;5.20;;
66721;SDS011;53633;49.932;10.884;2023-04-15T03:27:08;10.82;;;4.95;;
66721;SDS011;53633;49.932;10.884;2023-04-15T03:29:35;11.35;;;5.28;;
66721;SDS011;53633;49.932;10.884;2023-04-15T03:32:01;11.13;;;4.75;;
66721;SDS011;53633;49.932;10.884;2023-04-15T03:34:28;11.00;;;5.07;;
66721;SDS011;53633;49.932;10.884;2023-04-15T03:36:55;12.20;;;5.32;;
66721;SDS011;53633;49.932;10.884;2023-04-15T03:39:21;10.98;;;5.38;;
66721;SDS011;53633;49.932;10.884;2023-04-15T03:41:48;11.27;;;5.28;;
66721;SDS011;53633;49.932;10.884;2023-04-15T03:44:16;13.43;;;5.78;;
66721;SDS011;53633;49.932;10.884;2023-04-15T03:46:43;12.57;;;5.20;;
66721;SDS011;53633;49.932;10.884;2023-04-15T03:49:10;11.02;;;4.78;;
66721;SDS011;53633;49.932;10.884;2023-04-15T03:51:36;10.35;;;4.93;;
66721;SDS011;53633;49.932;10.884;2023-04-15T03:54:03;14.65;;;5.55;;
66721;SDS011;53633;49.932;10.884;2023-04-15T03:56:30;10.90;;;5.25;;
66721;SDS011;53633;49.932;10.884;2023-04-15T03:58:56;12.20;;;5.03;;
66721;SDS011;53633;49.932;10.884;2023-04-15T04:01:24;10.50;;;4.88;;
66721;SDS011;53633;49.932;10.884;2023-04-15T04:03:51;10.55;;;4.97;;
66721;SDS011;53633;49.932;10.884;2023-04-15T04:06:18;10.93;;;4.25;;
66721;SDS011;53633;49.932;10.884;2023-04-15T04:08:45;8.75;;;4.22;;
66721;SDS011;53633;49.932;10.884;2023-04-15T04:11:11;9.87;;;4.53;;
66721;SDS011;53633;49.932;10.884;2023-04-15T04:13:38;10.50;;;5.30;;
66721;SDS011;53633;49.932;10.884;2023-04-15T04:16:05;11.15;;;5.43;;
66721;SDS011;53633;49.932;10.884;2023-04-15T04:18:33;10.30;;;4.65;;
66721;SDS011;53633;49.932;10.884;2023-04-15T04:21:00;9.63;;;4.60;;
66721;SDS011;53633;49.932;10.884;2023-04-15T04:23:27;10.90;;;5.10;;
66721;SDS011;53633;49.932;10.884;2023-04-15T04:25:53;9.63;;;4.57;;
66721;SDS011;53633;49.932;10.884;2023-04-15T04:28:20;10.63;;;4.55;;
66721;SDS011;53633;49.932;10.884;2023-04-15T04:30:47;12.48;;;5.30;;
66721;SDS011;53633;49.932;10.884;2023-04-15T04:33:13;10.65;;;5.28;;
66721;SDS011;53633;49.932;10.884;2023-04-15T04:35:41;10.83;;;5.00;;
66721;SDS011;53633;49.932;10.884;2023-04-15T04:38:08;10.85;;;5.35;;
66721;SDS011;53633;49.932;10.884;2023-04-15T04:40:35;10.93;;;4.70;;
66721;SDS011;53633;49.932;10.884;2023-04-15T04:43:02;9.55;;;4.57;;
66721;SDS011;53633;49.932;10.884;2023-04-15T04:45:28;8.85;;;4.15;;
66721;SDS011;53633;49.932;10.884;2023-04-15T04:47:55;9.63;;;4.17;;
66721;SDS011;53633;49.932;10.884;2023-04-15T04:50:22;9.55;;;4.45;;
66721;SDS011;53633;49.932;10.884;2023-04-15T04:52:49;14.75;;;5.72;;
66721;SDS011;53633;49.932;10.884;2023-04-15T04:55:16;9.88;;;4.80;;
66721;SDS011;53633;49.932;10.884;2023-04-15T04:57:43;11.35;;;5.45;;
66721;SDS011;53633;49.932;10.884;2023-04-15T05:00:10;12.13;;;5.80;;
66721;SDS011;53633;49.932;10.884;2023-04-15T05:02:37;13.98;;;5.88;;
66721;SDS011;53633;49.932;10.884;2023-04-15T05:05:04;12.18;;;6.00;;
66721;SDS011;53633;49.932;10.884;2023-04-15T05:07:32;12.55;;;5.82;;
66721;SDS011;53633;49.932;10.884;2023-04-15T05:10:00;12.45;;;5.65;;
66721;SDS011;53633;49.932;10.884;2023-04-15T05:12:27;12.63;;;5.50;;
66721;SDS011;53633;49.932;10.884;2023-04-15T05:14:53;13.20;;;5.57;;
66721;SDS011;53633;49.932;10.884;2023-04-15T05:17:20;12.13;;;6.03;;
66721;SDS011;53633;49.932;10.884;2023-04-15T05:19:47;12.52;;;6.05;;
66721;SDS011;53633;49.932;10.884;2023-04-15T05:22:14;12.25;;;6.32;;
66721;SDS011;53633;49.932;10.884;2023-04-15T05:24:40;12.13;;;6.03;;
66721;SDS011;53633;49.932;10.884;2023-04-15T05:27:08;11.25;;;5.22;;
66721;SDS011;53633;49.932;10.884;2023-04-15T05:29:35;12.88;;;5.80;;
66721;SDS011;53633;49.932;10.884;2023-04-15T05:32:02;12.40;;;5.72;;
66721;SDS011;53633;49.932;10.884;2023-04-15T05:34:28;12.85;;;6.25;;
66721;SDS011;53633;49.932;10.884;2023-04-15T05:36:55;11.83;;;5.60;;
66721;SDS011;53633;49.932;10.884;2023-04-15T05:39:21;11.45;;;5.43;;
66721;SDS011;53633;49.932;10.884;2023-04-15T05:41:48;12.95;;;5.45;;
66721;SDS011;53633;49.932;10.884;2023-04-15T05:44:16;8.57;;;4.30;;
66721;SDS011;53633;49.932;10.884;2023-04-15T05:46:43;12.32;;;5.22;;
66721;SDS011;53633;49.932;10.884;2023-04-15T05:49:09;13.27;;;5.80;;
66721;SDS011;53633;49.932;10.884;2023-04-15T05:51:36;19.38;;;7.03;;
66721;SDS011;53633;49.932;10.884;2023-04-15T05:54:03;17.52;;;6.43;;
66721;SDS011;53633;49.932;10.884;2023-04-15T05:56:29;10.90;;;5.30;;
66721;SDS011;53633;49.932;10.884;2023-04-15T05:58:56;12.18;;;5.20;;
66721;SDS011;53633;49.932;10.884;2023-04-15T06:01:24;10.90;;;4.93;;
66721;SDS011;53633;49.932;10.884;2023-04-15T06:03:51;11.38;;;5.10;;
66721;SDS011;53633;49.932;10.884;2023-04-15T06:06:18;10.18;;;4.35;;
66721;SDS011;53633;49.932;10.884;2023-04-15T06:08:44;10.75;;;5.40;;
66721;SDS011;53633;49.932;10.884;2023-04-15T06:11:11;12.13;;;5.25;;
66721;SDS011;53633;49.932;10.884;2023-04-15T06:13:37;12.73;;;6.10;;
66721;SDS011;53633;49.932;10.884;2023-04-15T06:16:04;11.60;;;5.80;;
66721;SDS011;53633;49.932;10.884;2023-04-15T06:18:33;13.48;;;6.43;;
66721;SDS011;53633;49.932;10.884;2023-04-15T06:20:59;14.57;;;6.47;;
66721;SDS011;53633;49.932;10.884;2023-04-15T06:23:26;11.90;;;5.97;;
66721;SDS011;53633;49.932;10.884;2023-04-15T06:25:53;12.60;;;5.80;;
66721;SDS011;53633;49.932;10.884;2023-04-15T06:28:20;11.60;;;5.30;;
66721;SDS011;53633;49.932;10.884;2023-04-15T06:30:46;11.60;;;5.82;;
66721;SDS011;53633;49.932;10.884;2023-04-15T06:33:13;11.07;;;5.63;;
66721;SDS011;53633;49.932;10.884;2023-04-15T06:35:41;12.63;;;5.35;;
66721;SDS011;53633;49.932;10.884;2023-04-15T06:38:07;11.27;;;4.60;;
66721;SDS011;53633;49.932;10.884;2023-04-15T06:40:34;10.40;;;4.55;;
66721;SDS011;53633;49.932;10.884;2023-04-15T06:43:01;10.00;;;5.15;;
66721;SDS011;53633;49.932;10.884;2023-04-15T06:45:28;12.05;;;5.30;;
66721;SDS011;53633;49.932;10.884;2023-04-15T06:47:54;9.63;;;3.95;;
66721;SDS011;53633;49.932;10.884;2023-04-15T06:50:21;10.17;;;4.30;;
66721;SDS011;53633;49.932;10.884;2023-04-15T06:52:49;9.57;;;4.47;;
66721;SDS011;53633;49.932;10.884;2023-04-15T06:55:16;9.40;;;4.07;;
66721;SDS011;53633;49.932;10.884;2023-04-15T06:57:42;8.15;;;3.65;;
66721;SDS011;53633;49.932;10.884;2023-04-15T07:00:09;9.02;;;3.72;;
66721;SDS011;53633;49.932;10.884;2023-04-15T07:02:37;12.40;;;4.63;;
66721;SDS011;53633;49.932;10.884;2023-04-15T07:05:05;12.40;;;4.53;;
66721;SDS011;53633;49.932;10.884;2023-04-15T07:07:32;11.38;;;4.20;;
66721;SDS011;53633;49.932;10.884;2023-04-15T07:10:00;8.88;;;3.67;;
66721;SDS011;53633;49.932;10.884;2023-04-15T07:12:26;9.35;;;3.60;;
66721;SDS011;53633;49.932;10.884;2023-04-15T07:14:53;10.27;;;4.10;;
66721;SDS011;53633;49.932;10.884;2023-04-15T07:17:20;9.93;;;3.85;;
66721;SDS011;53633;49.932;10.884;2023-04-15T07:19:46;10.13;;;4.50;;
66721;SDS011;53633;49.932;10.884;2023-04-15T07:22:13;11.43;;;4.78;;
66721;SDS011;53633;49.932;10.884;2023-04-15T07:24:40;11.05;;;4.70;;
66721;SDS011;53633;49.932;10.884;2023-04-15T07:27:08;11.10;;;4.87;;
66721;SDS011;53633;49.932;10.884;2023-04-15T07:29:34;9.52;;;4.30;;
66721;SDS011;53633;49.932;10.884;2023-04-15T07:32:01;11.18;;;4.82;;
66721;SDS011;53633;49.932;10.884;2023-04-15T07:34:28;10.57;;;4.45;;
66721;SDS011;53633;49.932;10.884;2023-04-15T07:36:57;10.90;;;5.65;;
66721;SDS011;53633;49.932;10.884;2023-04-15T07:39:23;10.13;;;4.70;;
66721;SDS011;53633;49.932;10.884;2023-04-15T07:41:50;11.82;;;5.38;;
66721;SDS011;53633;49.932;10.884;2023-04-15T07:44:18;13.07;;;6.55;;
66721;SDS011;53633;49.932;10.884;2023-04-15T07:46:45;11.68;;;5.57;;
66721;SDS011;53633;49.932;10.884;2023-04-15T07:49:11;14.05;;;6.03;;
66721;SDS011;53633;49.932;10.884;2023-04-15T07:51:38;14.63;;;6.40;;
66721;SDS011;53633;49.932;10.884;2023-04-15T07:54:06;14.38;;;6.53;;
66721;SDS011;53633;49.932;10.884;2023-04-15T07:56:32;13.30;;;6.20;;
66721;SDS011;53633;49.932;10.884;2023-04-15T07:58:59;13.27;;;6.13;;
66721;SDS011;53633;49.932;10.884;2023-04-15T08:01:27;14.63;;;6.28;;
66721;SDS011;53633;49.932;10.884;2023-04-15T08:03:54;15.40;;;7.37;;
66721;SDS011;53633;49.932;10.884;2023-04-15T08:06:21;14.30;;;5.93;;
66721;SDS011;53633;49.932;10.884;2023-04-15T08:08:47;15.73;;;7.35;;
66721;SDS011;53633;49.932;10.884;2023-04-15T08:11:14;14.80;;;6.72;;
66721;SDS011;53633;49.932;10.884;2023-04-15T08:13:41;13.80;;;6.50;;
66721;SDS011;53633;49.932;10.884;2023-04-15T08:16:15;14.07;;;6.73;;
66721;SDS011;53633;49.932;10.884;2023-04-15T08:18:45;16.25;;;7.88;;
66721;SDS011;53633;49.932;10.884;2023-04-15T08:21:12;15.93;;;7.82;;
66721;SDS011;53633;49.932;10.884;2023-04-15T08:23:39;15.95;;;8.32;;
66721;SDS011;53633;49.932;10.884;2023-04-15T08:26:06;17.73;;;7.95;;
66721;SDS011;53633;49.932;10.884;2023-04-15T08:28:32;16.30;;;7.27;;
66721;SDS011;53633;49.932;10.884;2023-04-15T08:30:59;18.13;;;7.88;;
66721;SDS011;53633;49.932;10.884;2023-04-15T08:33:26;15.13;;;7.07;;
66721;SDS011;53633;49.932;10.884;2023-04-15T08:35:54;13.63;;;6.72;;
66721;SDS011;53633;49.932;10.884;2023-04-15T08:38:20;13.38;;;6.45;;
66721;SDS011;53633;49.932;10.884;2023-04-15T08:40:47;14.17;;;6.10;;
66721;SDS011;53633;49.932;10.884;2023-04-15T08:43:14;11.68;;;5.05;;
66721;SDS011;53633;49.932;10.884;2023-04-15T08:45:46;11.60;;;5.43;;
66721;SDS011;53633;49.932;10.884;2023-04-15T08:48:14;11.52;;;5.32;;
66721;SDS011;53633;49.932;10.884;2023-04-15T08:50:42;11.25;;;4.50;;
66721;SDS011;53633;49.932;10.884;2023-04-15T08:53:10;11.77;;;5.53;;
66721;SDS011;53633;49.932;10.884;2023-04-15T08:55:38;10.73;;;5.15;;
66721;SDS011;53633;49.932;10.884;2023-04-15T08:58:08;9.50;;;4.15;;
66721;SDS011;53633;49.932;10.884;2023-04-15T09:00:35;10.85;;;4.90;;
66721;SDS011;53633;49.932;10.884;2023-04-15T09:03:02;12.50;;;6.03;;
66721;SDS011;53633;49.932;10.884;2023-04-15T09:05:30;12.80;;;5.93;;
66721;SDS011;53633;49.932;10.884;2023-04-15T09:07:57;10.95;;;5.43;;
66721;SDS011;53633;49.932;10.884;2023-04-15T09:10:25;11.73;;;4.65;;
66721;SDS011;53633;49.932;10.884;2023-04-15T09:12:52;8.93;;;4.30;;
66721;SDS011;53633;49.932;10.884;2023-04-15T09:15:19;10.48;;;3.95;;
66721;SDS011;53633;49.932;10.884;2023-04-15T09:17:46;11.27;;;4.43;;
66721;SDS011;53633;49.932;10.884;2023-04-15T09:20:13;12.05;;;5.10;;
66721;SDS011;53633;49.932;10.884;2023-04-15T09:22:42;10.85;;;4.95;;
66721;SDS011;53633;49.932;10.884;2023-04-15T09:25:27;10.55;;;5.22;;
66721;SDS011;53633;49.932;10.884;2023-04-15T09:27:56;11.40;;;4.90;;
66721;SDS011;53633;49.932;10.884;2023-04-15T09:30:24;10.67;;;5.00;;
66721;SDS011;53633;49.932;10.884;2023-04-15T09:32:51;11.75;;;5.38;;
66721;SDS011;53633;49.932;10.884;2023-04-15T09:35:19;11.63;;;5.30;;
66721;SDS011;53633;49.932;10.884;2023-04-15T09:37:46;10.75;;;4.85;;
66721;SDS011;53633;49.932;10.884;2023-04-15T09:40:14;11.45;;;4.65;;
66721;SDS011;53633;49.932;10.884;2023-04-15T09:42:58;10.73;;;4.63;;
66721;SDS011;53633;49.932;10.884;2023-04-15T09:45:24;11.70;;;5.78;;
66721;SDS011;53633;49.932;10.884;2023-04-15T09:47:55;9.80;;;4.72;;
66721;SDS011;53633;49.932;10.884;2023-04-15T09:50:26;11.68;;;5.90;;
66721;SDS011;53633;49.932;10.884;2023-04-15T09:52:53;10.80;;;5.05;;
66721;SDS011;53633;49.932;10.884;2023-04-15T09:55:20;10.40;;;5.13;;
66721;SDS011;53633;49.932;10.884;2023-04-15T09:57:47;13.35;;;5.30;;
66721;SDS011;53633;49.932;10.884;2023-04-15T10:00:15;9.80;;;4.75;;
66721;SDS011;53633;49.932;10.884;2023-04-15T10:02:42;11.45;;;5.25;;
66721;SDS011;53633;49.932;10.884;2023-04-15T10:05:09;10.35;;;4.88;;
66721;SDS011;53633;49.932;10.884;2023-04-15T10:07:38;11.20;;;5.17;;
66721;SDS011;53633;49.932;10.884;2023-04-15T10:10:06;10.23;;;4.03;;
66721;SDS011;53633;49.932;10.884;2023-04-15T10:12:33;9.43;;;4.32;;
66721;SDS011;53633;49.932;10.884;2023-04-15T10:15:03;9.13;;;3.95;;
66721;SDS011;53633;49.932;10.884;2023-04-15T10:17:32;10.50;;;4.15;;
66721;SDS011;53633;49.932;10.884;2023-04-15T10:20:00;9.13;;;3.83;;
66721;SDS011;53633;49.932;10.884;2023-04-15T10:22:27;9.98;;;3.92;;
66721;SDS011;53633;49.932;10.884;2023-04-15T10:24:55;10.38;;;3.72;;
66721;SDS011;53633;49.932;10.884;2023-04-15T10:27:22;9.20;;;3.70;;
66721;SDS011;53633;49.932;10.884;2023-04-15T10:29:49;9.77;;;4.03;;
66721;SDS011;53633;49.932;10.884;2023-04-15T10:32:17;8.57;;;3.63;;
66721;SDS011;53633;49.932;10.884;2023-04-15T10:34:47;10.30;;;4.10;;
66721;SDS011;53633;49.932;10.884;2023-04-15T10:37:19;13.00;;;6.13;;
66721;SDS011;53633;49.932;10.884;2023-04-15T10:39:46;9.40;;;3.50;;
66721;SDS011;53633;49.932;10.884;2023-04-15T10:42:14;7.90;;;3.22;;
66721;SDS011;53633;49.932;10.884;2023-04-15T10:44:42;8.83;;;3.40;;
66721;SDS011;53633;49.932;10.884;2023-04-15T10:47:10;6.18;;;2.50;;
66721;SDS011;53633;49.932;10.884;2023-04-15T10:49:42;7.07;;;2.20;;
66721;SDS011;53633;49.932;10.884;2023-04-15T10:52:11;5.25;;;1.98;;
66721;SDS011;53633;49.932;10.884;2023-04-15T10:54:37;6.35;;;2.53;;
66721;SDS011;53633;49.932;10.884;2023-04-15T10:57:08;6.33;;;2.50;;
66721;SDS011;53633;49.932;10.884;2023-04-15T11:02:42;5.70;;;2.08;;
66721;SDS011;53633;49.932;10.884;2023-04-15T11:05:10;5.72;;;1.77;;
66721;SDS011;53633;49.932;10.884;2023-04-15T11:07:40;4.85;;;1.90;;
66721;SDS011;53633;49.932;10.884;2023-04-15T11:13:22;8.73;;;3.13;;
66721;SDS011;53633;49.932;10.884;2023-04-15T11:15:49;6.10;;;2.25;;
66721;SDS011;53633;49.932;10.884;2023-04-15T11:18:16;5.07;;;1.73;;
66721;SDS011;53633;49.932;10.884;2023-04-15T11:20:45;6.18;;;2.08;;
66721;SDS011;53633;49.932;10.884;2023-04-15T11:23:14;4.67;;;1.50;;
66721;SDS011;53633;49.932;10.884;2023-04-15T11:25:41;4.57;;;1.50;;
66721;SDS011;53633;49.932;10.884;2023-04-15T11:28:09;4.78;;;1.50;;
66721;SDS011;53633;49.932;10.884;2023-04-15T11:30:36;4.63;;;1.30;;
66721;SDS011;53633;49.932;10.884;2023-04-15T11:33:05;4.45;;;1.25;;
66721;SDS011;53633;49.932;10.884;2023-04-15T11:35:33;4.13;;;1.10;;
66721;SDS011;53633;49.932;10.884;2023-04-15T11:38:01;3.92;;;1.00;;
66721;SDS011;53633;49.932;10.884;2023-04-15T11:40:29;4.95;;;1.30;;
66721;SDS011;53633;49.932;10.884;2023-04-15T11:43:03;3.63;;;0.90;;
66721;SDS011;53633;49.932;10.884;2023-04-15T11:45:30;3.88;;;1.08;;
66721;SDS011;53633;49.932;10.884;2023-04-15T11:48:03;3.33;;;0.90;;
66721;SDS011;53633;49.932;10.884;2023-04-15T11:50:31;3.83;;;1.23;;
66721;SDS011;53633;49.932;10.884;2023-04-15T11:52:58;3.75;;;1.10;;
66721;SDS011;53633;49.932;10.884;2023-04-15T11:55:26;4.13;;;1.10;;
66721;SDS011;53633;49.932;10.884;2023-04-15T11:58:06;4.15;;;1.20;;
66721;SDS011;53633;49.932;10.884;2023-04-15T12:00:34;3.83;;;1.00;;
66721;SDS011;53633;49.932;10.884;2023-04-15T12:03:11;3.58;;;1.05;;
66721;SDS011;53633;49.932;10.884;2023-04-15T12:11:39;4.50;;;1.02;;
66721;SDS011;53633;49.932;10.884;2023-04-15T12:14:12;3.60;;;0.97;;
66721;SDS011;53633;49.932;10.884;2023-04-15T12:16:43;5.13;;;1.38;;
66721;SDS011;53633;49.932;10.884;2023-04-15T12:19:15;4.95;;;1.88;;
66721;SDS011;53633;49.932;10.884;2023-04-15T12:21:44;3.08;;;0.80;;
66721;SDS011;53633;49.932;10.884;2023-04-15T12:24:12;4.07;;;0.82;;
66721;SDS011;53633;49.932;10.884;2023-04-15T12:26:42;3.57;;;0.90;;
66721;SDS011;53633;49.932;10.884;2023-04-15T12:29:12;3.03;;;0.75;;
66721;SDS011;53633;49.932;10.884;2023-04-15T12:31:46;3.13;;;0.77;;
66721;SDS011;53633;49.932;10.884;2023-04-15T12:34:13;3.25;;;0.70;;
66721;SDS011;53633;49.932;10.884;2023-04-15T12:36:40;3.00;;;0.70;;
66721;SDS011;53633;49.932;10.884;2023-04-15T12:39:07;3.07;;;0.87;;
66721;SDS011;53633;49.932;10.884;2023-04-15T12:41:34;3.13;;;0.80;;
66721;SDS011;53633;49.932;10.884;2023-04-15T12:44:00;2.70;;;0.73;;
66721;SDS011;53633;49.932;10.884;2023-04-15T12:46:29;2.47;;;0.60;;
66721;SDS011;53633;49.932;10.884;2023-04-15T12:48:55;2.53;;;0.70;;
66721;SDS011;53633;49.932;10.884;2023-04-15T12:51:22;2.40;;;0.50;;
66721;SDS011;53633;49.932;10.884;2023-04-15T12:53:49;1.63;;;0.50;;
66721;SDS011;53633;49.932;10.884;2023-04-15T12:56:16;1.98;;;0.50;;
66721;SDS011;53633;49.932;10.884;2023-04-15T12:58:42;2.78;;;0.43;;
66721;SDS011;53633;49.932;10.884;2023-04-15T13:01:11;2.42;;;0.68;;
66721;SDS011;53633;49.932;10.884;2023-04-15T13:03:39;2.27;;;0.60;;
66721;SDS011;53633;49.932;10.884;2023-04-15T13:06:06;2.13;;;0.60;;
66721;SDS011;53633;49.932;10.884;2023-04-15T13:08:32;2.42;;;0.60;;
66721;SDS011;53633;49.932;10.884;2023-04-15T13:11:02;2.53;;;0.57;;
66721;SDS011;53633;49.932;10.884;2023-04-15T13:13:28;2.45;;;0.50;;
66721;SDS011;53633;49.932;10.884;2023-04-15T13:15:55;2.00;;;0.47;;
66721;SDS011;53633;49.932;10.884;2023-04-15T13:18:22;2.38;;;0.55;;
66721;SDS011;53633;49.932;10.884;2023-04-15T13:20:50;2.83;;;0.57;;
66721;SDS011;53633;49.932;10.884;2023-04-15T13:23:17;3.92;;;0.57;;
66721;SDS011;53633;49.932;10.884;2023-04-15T13:25:43;3.20;;;0.88;;
66721;SDS011;53633;49.932;10.884;2023-04-15T13:28:10;1.87;;;0.40;;
66721;SDS011;53633;49.932;10.884;2023-04-15T13:30:37;2.15;;;0.50;;
66721;SDS011;53633;49.932;10.884;2023-04-15T13:33:04;1.80;;;0.40;;
66721;SDS011;53633;49.932;10.884;2023-04-15T13:35:31;1.70;;;0.40;;
66721;SDS011;53633;49.932;10.884;2023-04-15T13:37:59;2.42;;;0.52;;
66721;SDS011;53633;49.932;10.884;2023-04-15T13:40:26;2.60;;;0.60;;
66721;SDS011;53633;49.932;10.884;2023-04-15T13:42:53;1.58;;;0.40;;
66721;SDS011;53633;49.932;10.884;2023-04-15T13:45:19;2.22;;;0.60;;
66721;SDS011;53633;49.932;10.884;2023-04-15T13:47:46;3.10;;;0.70;;
66721;SDS011;53633;49.932;10.884;2023-04-15T13:50:13;3.88;;;0.98;;
66721;SDS011;53633;49.932;10.884;2023-04-15T13:52:39;6.43;;;1.13;;
66721;SDS011;53633;49.932;10.884;2023-04-15T13:55:08;6.43;;;1.60;;
66721;SDS011;53633;49.932;10.884;2023-04-15T13:57:45;7.35;;;2.40;;
66721;SDS011;53633;49.932;10.884;2023-04-15T14:00:13;10.52;;;2.30;;
66721;SDS011;53633;49.932;10.884;2023-04-15T14:02:40;7.55;;;1.60;;
66721;SDS011;53633;49.932;10.884;2023-04-15T14:05:07;5.90;;;1.07;;
66721;SDS011;53633;49.932;10.884;2023-04-15T14:07:34;2.03;;;0.40;;
66721;SDS011;53633;49.932;10.884;2023-04-15T14:10:01;3.08;;;0.55;;
66721;SDS011;53633;49.932;10.884;2023-04-15T14:12:29;1.33;;;0.30;;
66721;SDS011;53633;49.932;10.884;2023-04-15T14:14:56;1.42;;;0.40;;
66721;SDS011;53633;49.932;10.884;2023-04-15T14:17:22;3.20;;;0.70;;
66721;SDS011;53633;49.932;10.884;2023-04-15T14:19:49;1.75;;;0.30;;
66721;SDS011;53633;49.932;10.884;2023-04-15T14:22:16;4.72;;;0.80;;
66721;SDS011;53633;49.932;10.884;2023-04-15T14:24:43;2.92;;;0.50;;
66721;SDS011;53633;49.932;10.884;2023-04-15T14:27:10;2.92;;;0.60;;
66721;SDS011;53633;49.932;10.884;2023-04-15T14:29:38;1.80;;;0.47;;
66721;SDS011;53633;49.932;10.884;2023-04-15T14:32:05;2.25;;;0.60;;
66721;SDS011;53633;49.932;10.884;2023-04-15T14:34:37;2.28;;;0.60;;
66721;SDS011;53633;49.932;10.884;2023-04-15T14:37:04;2.78;;;0.60;;
66721;SDS011;53633;49.932;10.884;2023-04-15T14:39:31;3.17;;;0.50;;